createdAt,value
2018-07-28T00:01:25.095Z,68.10
2018-07-28T00:03:53.847Z,69.50
2018-07-28T00:06:22.562Z,67.00
2018-07-28T00:08:51.199Z,67.20
2018-07-28T00:11:19.966Z,67.20
2018-07-28T00:13:48.608Z,68.20
2018-07-28T00:16:17.229Z,66.30
2018-07-28T00:18:45.868Z,67.60
2018-07-28T00:21:14.434Z,69.40
2018-07-28T00:23:43.059Z,69.30
2018-07-28T00:26:18.549Z,70.20
2018-07-28T00:28:48.646Z,70.20
2018-07-28T00:31:17.406Z,69.00
2018-07-28T00:33:46.466Z,69.70
2018-07-28T00:38:43.315Z,70.80
2018-07-28T00:41:12.044Z,72.30
2018-07-28T00:43:40.674Z,73.10
2018-07-28T00:46:09.362Z,73.20
2018-07-28T00:48:38.005Z,72.10
2018-07-28T00:51:06.613Z,71.60
2018-07-28T00:53:35.406Z,71.40
2018-07-28T00:56:04.169Z,72.50
2018-07-28T00:58:33.262Z,74.20
2018-07-28T01:01:01.932Z,72.80
2018-07-28T01:03:30.667Z,69.40
2018-07-28T01:05:59.353Z,72.80
2018-07-28T01:08:28.318Z,72.60
2018-07-28T01:10:56.929Z,74.20
2018-07-28T01:13:25.561Z,71.40
2018-07-28T01:15:54.274Z,72.50
2018-07-28T01:18:22.865Z,71.50
2018-07-28T01:20:52.186Z,70.30
2018-07-28T01:23:20.877Z,70.50
2018-07-28T01:25:49.458Z,69.90
2018-07-28T01:28:18.078Z,69.40
2018-07-28T01:30:46.752Z,69.90
2018-07-28T01:33:15.401Z,71.50
2018-07-28T01:35:44.018Z,70.20
2018-07-28T01:38:12.572Z,68.80
2018-07-28T01:40:41.152Z,69.20
2018-07-28T01:43:09.758Z,67.90
2018-07-28T01:45:38.427Z,68.90
2018-07-28T01:48:07.427Z,69.40
2018-07-28T01:50:36.063Z,68.50
2018-07-28T01:53:04.676Z,68.50
2018-07-28T01:55:33.376Z,70.20
2018-07-28T01:58:02.034Z,70.10
2018-07-28T02:00:30.736Z,71.20
2018-07-28T02:02:59.340Z,71.10
2018-07-28T02:05:27.955Z,72.20
2018-07-28T02:07:56.696Z,71.70
2018-07-28T02:10:26.162Z,72.30
2018-07-28T02:12:54.853Z,71.10
2018-07-28T02:15:23.504Z,72.40
2018-07-28T02:17:52.309Z,72.40
2018-07-28T02:20:20.920Z,72.20
2018-07-28T02:22:49.544Z,71.60
2018-07-28T02:25:19.418Z,72.60
2018-07-28T02:27:48.065Z,73.20
2018-07-28T02:30:16.638Z,74.30
2018-07-28T02:32:45.283Z,74.80
2018-07-28T02:35:13.880Z,73.90
2018-07-28T02:37:42.493Z,74.10
2018-07-28T02:40:11.164Z,74.40
2018-07-28T02:42:39.804Z,73.90
2018-07-28T02:45:08.775Z,75.20
2018-07-28T02:47:37.645Z,72.80
2018-07-28T02:50:07.392Z,74.80
2018-07-28T02:52:36.396Z,74.20
2018-07-28T02:55:06.152Z,74.00
2018-07-28T02:57:34.830Z,75.30
2018-07-28T03:00:03.637Z,75.30
2018-07-28T03:02:32.778Z,72.60
2018-07-28T03:05:01.525Z,70.80
2018-07-28T03:07:30.305Z,71.40
2018-07-28T03:09:58.887Z,71.30
2018-07-28T03:12:27.494Z,70.70
2018-07-28T03:14:56.216Z,71.30
2018-07-28T03:17:24.912Z,71.10
2018-07-28T03:19:53.522Z,68.80
2018-07-28T03:22:22.593Z,68.60
2018-07-28T03:24:51.255Z,69.10
2018-07-28T03:27:19.948Z,70.40
2018-07-28T03:32:16.815Z,69.30
2018-07-28T03:34:45.417Z,72.00
2018-07-28T03:37:13.977Z,70.10
2018-07-28T03:39:42.747Z,72.50
2018-07-28T03:42:11.485Z,69.70
2018-07-28T03:44:40.187Z,69.70
2018-07-28T03:47:08.951Z,69.40
2018-07-28T03:49:37.712Z,69.00
2018-07-28T03:52:07.107Z,66.40
2018-07-28T03:54:35.718Z,67.90
2018-07-28T03:57:04.312Z,66.30
2018-07-28T03:59:33.022Z,67.10
2018-07-28T04:02:01.710Z,67.90
2018-07-28T04:04:30.535Z,65.60
2018-07-28T04:06:59.106Z,68.50
2018-07-28T04:09:27.690Z,71.70
2018-07-28T04:11:56.355Z,70.00
2018-07-28T04:14:25.526Z,70.40
2018-07-28T04:16:54.091Z,67.30
2018-07-28T04:19:23.343Z,69.70
2018-07-28T04:21:51.912Z,70.70
2018-07-28T04:24:20.540Z,74.70
2018-07-28T04:26:49.190Z,78.50
2018-07-28T04:29:17.906Z,80.70
2018-07-28T04:31:46.471Z,82.20
2018-07-28T04:34:15.120Z,84.40
2018-07-28T04:36:43.738Z,84.30
2018-07-28T04:39:14.010Z,84.40
2018-07-28T04:41:43.415Z,84.60
2018-07-28T04:44:11.978Z,84.70
2018-07-28T04:46:40.836Z,84.50
2018-07-28T04:49:09.427Z,84.80
2018-07-28T04:51:38.720Z,84.30
2018-07-28T04:54:07.422Z,83.40
2018-07-28T04:56:36.785Z,81.70
2018-07-28T04:59:05.417Z,82.30
2018-07-28T05:01:34.208Z,82.70
2018-07-28T05:04:02.974Z,84.20
2018-07-28T05:06:31.578Z,84.60
2018-07-28T05:09:00.213Z,84.80
2018-07-28T05:13:57.239Z,83.40
2018-07-28T05:16:25.869Z,83.50
2018-07-28T05:21:22.947Z,82.80
2018-07-28T05:23:51.617Z,82.00
2018-07-28T05:26:20.268Z,82.70
2018-07-28T05:28:48.919Z,81.30
2018-07-28T05:31:20.896Z,80.90
2018-07-28T05:33:49.457Z,79.20
2018-07-28T05:36:18.077Z,79.70
2018-07-28T05:38:46.678Z,79.00
2018-07-28T05:41:15.292Z,79.90
2018-07-28T05:43:44.236Z,78.50
2018-07-28T05:46:12.818Z,76.60
2018-07-28T05:48:41.916Z,76.00
2018-07-28T05:51:11.095Z,76.70
2018-07-28T05:53:40.327Z,76.90
2018-07-28T05:56:11.644Z,77.50
2018-07-28T05:58:41.306Z,76.10
2018-07-28T06:01:09.893Z,76.20
2018-07-28T06:03:38.499Z,75.40
2018-07-28T06:06:07.230Z,72.40
2018-07-28T06:08:35.850Z,72.10
2018-07-28T06:11:04.514Z,71.20
2018-07-28T06:13:33.158Z,70.10
2018-07-28T06:16:01.985Z,70.80
2018-07-28T06:18:30.765Z,69.90
2018-07-28T06:20:59.433Z,69.30
2018-07-28T06:23:28.123Z,69.70
2018-07-28T06:25:56.769Z,68.40
2018-07-28T06:28:25.357Z,67.80
2018-07-28T06:30:53.909Z,66.60
2018-07-28T06:33:22.658Z,64.60
2018-07-28T06:35:51.260Z,63.10
2018-07-28T06:38:19.839Z,62.30
2018-07-28T06:40:48.582Z,63.50
2018-07-28T06:43:17.206Z,64.10
2018-07-28T06:45:45.804Z,63.70
2018-07-28T06:48:14.472Z,61.60
2018-07-28T06:50:43.168Z,61.90
2018-07-28T06:53:11.833Z,60.60
2018-07-28T06:55:40.438Z,62.60
2018-07-28T06:58:09.108Z,62.00
2018-07-28T07:00:37.725Z,62.90
2018-07-28T07:03:06.577Z,63.90
2018-07-28T07:05:35.489Z,64.40
2018-07-28T07:08:04.150Z,64.90
2018-07-28T07:10:32.741Z,66.10
2018-07-28T07:13:01.341Z,65.40
2018-07-28T07:15:29.926Z,64.90
2018-07-28T07:17:59.230Z,64.70
2018-07-28T07:20:27.854Z,63.50
2018-07-28T07:22:56.414Z,61.20
2018-07-28T07:25:25.657Z,61.20
2018-07-28T07:27:54.216Z,59.30
2018-07-28T07:30:22.841Z,59.80
2018-07-28T07:32:51.503Z,58.60
2018-07-28T07:37:48.477Z,60.10
2018-07-28T07:42:45.553Z,62.10
2018-07-28T07:45:14.151Z,63.50
2018-07-28T07:47:42.840Z,64.70
2018-07-28T07:50:11.535Z,66.10
2018-07-28T07:52:40.347Z,68.60
2018-07-28T07:55:08.997Z,72.90
2018-07-28T07:57:37.749Z,73.00
2018-07-28T08:00:07.160Z,74.90
2018-07-28T08:02:36.041Z,76.30
2018-07-28T08:05:04.867Z,77.60
2018-07-28T08:07:33.469Z,79.00
2018-07-28T08:10:02.116Z,79.70
2018-07-28T08:12:30.761Z,81.10
2018-07-28T08:14:59.969Z,79.00
2018-07-28T08:17:28.660Z,77.90
2018-07-28T08:19:57.398Z,77.10
2018-07-28T08:22:25.991Z,75.70
2018-07-28T08:24:54.882Z,74.30
2018-07-28T08:27:23.945Z,72.60
2018-07-28T08:29:52.523Z,69.80
2018-07-28T08:32:21.408Z,67.40
2018-07-28T08:34:50.121Z,65.30
2018-07-28T08:37:18.737Z,61.70
2018-07-28T08:39:47.948Z,59.80
2018-07-28T08:42:17.553Z,59.90
2018-07-28T08:44:46.238Z,56.90
2018-07-28T08:59:32.795Z,59.60
2018-07-28T09:02:01.439Z,78.70
2018-07-28T09:04:30.701Z,78.80
2018-07-28T09:06:59.391Z,76.10
2018-07-28T09:09:28.029Z,73.10
2018-07-28T09:11:56.730Z,69.10
2018-07-28T09:14:25.459Z,69.80
2018-07-28T09:16:55.806Z,67.70
2018-07-28T09:19:24.410Z,65.00
2018-07-28T09:21:53.009Z,64.20
2018-07-28T09:24:21.668Z,65.20
2018-07-28T09:26:50.354Z,62.10
2018-07-28T09:29:19.000Z,56.90
2018-07-28T09:31:48.197Z,55.70
2018-07-28T09:34:16.797Z,54.40
2018-07-28T09:36:45.866Z,52.80
2018-07-28T09:39:14.485Z,55.00
2018-07-28T09:41:43.166Z,51.10
2018-07-28T09:44:11.817Z,52.60
2018-07-28T09:49:08.626Z,48.00
2018-07-28T09:51:37.226Z,46.00
2018-07-28T09:54:05.834Z,45.40
2018-07-28T09:59:02.770Z,40.70
2018-07-28T10:01:31.431Z,39.80
2018-07-28T10:04:01.771Z,37.30
2018-07-28T10:06:30.533Z,41.60
2018-07-28T10:08:59.270Z,41.60
2018-07-28T10:11:27.928Z,43.60
2018-07-28T10:13:56.658Z,46.40
2018-07-28T10:16:25.293Z,48.20
2018-07-28T10:18:54.043Z,45.30
2018-07-28T10:21:22.760Z,40.30
2018-07-28T10:23:51.354Z,39.50
2018-07-28T10:26:19.937Z,37.00
2018-07-28T10:28:48.559Z,34.20
2018-07-28T10:31:17.216Z,33.10
2018-07-28T10:33:45.799Z,32.20
2018-07-28T10:36:14.440Z,32.60
2018-07-28T10:38:42.998Z,36.20
2018-07-28T10:41:11.618Z,38.40
2018-07-28T10:43:40.228Z,38.40
2018-07-28T10:46:08.871Z,40.00
2018-07-28T10:51:06.027Z,35.00
2018-07-28T10:53:34.659Z,34.70
2018-07-28T10:56:03.515Z,33.50
2018-07-28T10:58:32.108Z,36.70
2018-07-28T11:01:00.796Z,33.50
2018-07-28T11:03:29.427Z,29.70
2018-07-28T11:05:58.194Z,26.90
2018-07-28T11:08:27.841Z,28.10
2018-07-28T11:10:56.445Z,28.70
2018-07-28T11:13:25.228Z,27.30
2018-07-28T11:15:53.807Z,27.10
2018-07-28T11:18:22.458Z,29.90
2018-07-28T11:20:51.200Z,32.10
2018-07-28T11:25:53.693Z,30.50
2018-07-28T11:28:22.377Z,30.70
2018-07-28T11:33:30.748Z,32.30
2018-07-28T11:36:10.485Z,33.30
2018-07-28T11:38:50.194Z,31.90
2018-07-28T11:41:29.920Z,32.20
2018-07-28T11:44:09.809Z,31.60
2018-07-28T11:46:38.470Z,31.00
2018-07-28T11:49:07.059Z,29.80
2018-07-28T11:54:04.056Z,28.50
2018-07-28T11:56:32.766Z,30.50
2018-07-28T11:59:01.440Z,32.40
2018-07-28T12:01:30.070Z,34.70
2018-07-28T12:03:58.784Z,34.90
2018-07-28T12:08:55.744Z,34.40
2018-07-28T12:13:52.625Z,41.40
2018-07-28T12:16:21.346Z,42.10
2018-07-28T12:18:50.022Z,42.00
2018-07-28T12:21:18.740Z,42.90
2018-07-28T12:23:47.310Z,43.20
2018-07-28T12:26:15.870Z,42.50
2018-07-28T12:28:45.094Z,41.10
2018-07-28T12:31:13.723Z,39.90
2018-07-28T12:33:42.287Z,39.30
2018-07-28T12:36:11.016Z,38.10
2018-07-28T12:38:39.677Z,37.10
2018-07-28T12:41:08.577Z,32.90
2018-07-28T12:43:37.162Z,30.50
2018-07-28T12:46:05.796Z,26.10
2018-07-28T12:48:34.361Z,23.00
2018-07-28T12:51:03.043Z,24.40
2018-07-28T12:53:32.505Z,22.30
2018-07-28T12:56:01.142Z,22.50
2018-07-28T12:58:29.709Z,21.60
2018-07-28T13:00:58.456Z,21.30
2018-07-28T13:03:27.071Z,24.70
2018-07-28T13:05:55.624Z,25.40
2018-07-28T13:08:24.333Z,24.70
2018-07-28T13:10:52.927Z,24.40
2018-07-28T13:13:21.511Z,25.40
2018-07-28T13:15:50.113Z,26.40
2018-07-28T13:18:18.916Z,24.50
2018-07-28T13:20:47.538Z,25.60
2018-07-28T13:23:16.147Z,24.20
2018-07-28T13:25:44.860Z,22.10
2018-07-28T13:28:14.189Z,21.40
2018-07-28T13:30:42.805Z,21.00
2018-07-28T13:33:11.323Z,22.00
2018-07-28T13:35:39.885Z,21.50
2018-07-28T13:38:08.606Z,22.00
2018-07-28T13:40:37.212Z,20.10
2018-07-28T13:43:06.657Z,21.50
2018-07-28T13:45:35.487Z,21.40
2018-07-28T13:48:04.153Z,20.00
2018-07-28T13:50:32.759Z,20.10
2018-07-28T13:53:01.468Z,21.20
2018-07-28T13:55:30.126Z,22.10
2018-07-28T13:57:58.746Z,25.20
2018-07-28T14:00:28.022Z,25.60
2018-07-28T14:02:56.495Z,25.70
2018-07-28T14:05:25.053Z,27.30
2018-07-28T14:07:53.620Z,27.30
2018-07-28T14:12:50.488Z,32.00
2018-07-28T14:15:19.057Z,33.30
2018-07-28T14:17:47.672Z,32.00
2018-07-28T14:20:16.281Z,30.30
2018-07-28T14:22:44.969Z,31.60
2018-07-28T14:25:13.627Z,31.90
2018-07-28T14:27:42.231Z,29.80
2018-07-28T14:30:10.913Z,28.70
2018-07-28T14:32:39.538Z,27.20
2018-07-28T14:35:08.194Z,27.20
2018-07-28T14:37:36.877Z,27.80
2018-07-28T14:40:05.484Z,28.40
2018-07-28T14:42:34.934Z,29.00
2018-07-28T14:45:03.517Z,30.10
2018-07-28T14:47:32.053Z,29.40
2018-07-28T14:50:00.661Z,28.10
2018-07-28T14:52:29.209Z,27.30
2018-07-28T14:54:58.608Z,27.40
2018-07-28T14:57:27.189Z,27.00
2018-07-28T14:59:56.325Z,27.20
2018-07-28T15:02:25.006Z,27.00
2018-07-28T15:04:53.595Z,25.00
2018-07-28T15:07:22.397Z,24.80
2018-07-28T15:09:50.924Z,24.00
2018-07-28T15:12:19.521Z,22.50
2018-07-28T15:14:48.460Z,22.80
2018-07-28T15:17:17.118Z,22.20
2018-07-28T15:19:45.969Z,22.70
2018-07-28T15:22:14.680Z,22.70
2018-07-28T15:24:43.392Z,25.40
2018-07-28T15:27:12.152Z,24.60
2018-07-28T15:29:40.854Z,24.20
2018-07-28T15:32:09.527Z,24.60
2018-07-28T15:34:38.230Z,23.70
2018-07-28T15:37:06.856Z,22.30
2018-07-28T15:39:35.512Z,23.40
2018-07-28T15:42:04.157Z,24.50
2018-07-28T15:44:32.962Z,24.60
2018-07-28T15:47:01.647Z,23.80
2018-07-28T15:49:31.082Z,23.70
2018-07-28T15:52:00.411Z,25.60
2018-07-28T15:54:29.066Z,24.60
2018-07-28T15:56:57.831Z,23.80
2018-07-28T15:59:26.413Z,24.30
2018-07-28T16:01:55.171Z,24.50
2018-07-28T16:04:23.746Z,23.50
2018-07-28T16:06:52.338Z,23.80
2018-07-28T16:09:21.025Z,23.50
2018-07-28T16:11:50.354Z,22.40
2018-07-28T16:14:19.606Z,22.50
2018-07-28T16:19:16.465Z,22.20
2018-07-28T16:21:45.103Z,22.20
2018-07-28T16:24:13.761Z,21.20
2018-07-28T16:26:42.331Z,22.30
2018-07-28T16:29:11.005Z,22.20
2018-07-28T16:31:39.592Z,23.00
2018-07-28T16:34:08.328Z,24.30
2018-07-28T16:36:36.927Z,23.70
2018-07-28T16:39:07.924Z,25.80
2018-07-28T16:41:36.793Z,25.90
2018-07-28T16:44:05.400Z,26.40
2018-07-28T16:46:33.998Z,27.00
2018-07-28T16:49:02.646Z,25.70
2018-07-28T16:51:31.202Z,26.10
2018-07-28T16:53:59.787Z,27.20
2018-07-28T16:56:28.411Z,27.50
2018-07-28T16:58:57.220Z,28.20
2018-07-28T17:01:25.899Z,28.40
2018-07-28T17:03:54.470Z,28.60
2018-07-28T17:08:51.241Z,29.10
2018-07-28T17:13:48.023Z,29.20
2018-07-28T17:16:16.579Z,29.60
2018-07-28T17:21:13.458Z,30.30
2018-07-28T17:23:41.974Z,29.60
2018-07-28T17:26:11.531Z,29.00
2018-07-28T17:28:40.162Z,29.20
2018-07-28T17:31:08.995Z,29.70
2018-07-28T17:33:37.562Z,29.50
2018-07-28T17:36:06.762Z,29.50
2018-07-28T17:38:35.360Z,29.80
2018-07-28T17:41:04.016Z,29.60
2018-07-28T17:43:32.564Z,29.10
2018-07-28T17:46:01.130Z,29.40
2018-07-28T17:48:29.727Z,29.60
2018-07-28T17:50:58.485Z,29.40
2018-07-28T17:53:27.047Z,29.50
2018-07-28T17:55:56.533Z,29.50
2018-07-28T17:58:25.437Z,29.60
2018-07-28T18:00:54.940Z,30.00
2018-07-28T18:03:23.976Z,29.60
2018-07-28T18:05:52.707Z,29.80
2018-07-28T18:08:21.638Z,30.30
2018-07-28T18:10:50.487Z,30.30
2018-07-28T18:13:19.324Z,29.60
2018-07-28T18:15:48.496Z,29.60
2018-07-28T18:18:17.166Z,29.80
2018-07-28T18:20:46.053Z,29.50
2018-07-28T18:23:14.855Z,29.70
2018-07-28T18:25:43.762Z,30.10
2018-07-28T18:28:12.245Z,29.40
2018-07-28T18:30:41.252Z,28.90
2018-07-28T18:33:10.120Z,29.10
2018-07-28T18:35:38.895Z,29.70
2018-07-28T18:38:07.982Z,29.50
2018-07-28T18:40:36.882Z,29.70
2018-07-28T18:43:05.663Z,29.30
2018-07-28T18:45:34.162Z,29.80
2018-07-28T18:48:02.815Z,29.30
2018-07-28T18:50:31.425Z,29.70
2018-07-28T18:52:59.980Z,29.80
2018-07-28T18:55:28.520Z,29.90
2018-07-28T18:57:57.129Z,30.00
2018-07-28T19:00:25.641Z,30.80
2018-07-28T19:02:54.310Z,30.10
2018-07-28T19:07:51.018Z,30.60
2018-07-28T19:10:19.598Z,32.00
2018-07-28T19:12:53.388Z,32.50
2018-07-28T19:15:21.924Z,33.20
2018-07-28T19:17:55.917Z,33.90
2018-07-28T19:20:24.515Z,35.00
2018-07-28T19:22:58.506Z,35.60
2018-07-28T19:25:27.031Z,35.10
2018-07-28T19:28:01.081Z,35.30
2018-07-28T19:30:29.672Z,41.90
2018-07-28T19:32:58.246Z,40.00
2018-07-28T19:35:31.008Z,43.60
2018-07-28T19:37:59.565Z,45.60
2018-07-28T19:40:28.095Z,42.40
2018-07-28T19:42:56.626Z,46.80
2018-07-28T19:45:25.141Z,44.10
2018-07-28T19:47:53.669Z,47.40
2018-07-28T19:50:22.236Z,49.50
2018-07-28T19:52:50.864Z,51.70
2018-07-28T19:55:19.584Z,51.60
2018-07-28T19:57:48.111Z,52.00
2018-07-28T20:00:16.623Z,53.30
2018-07-28T20:02:45.122Z,53.30
2018-07-28T20:05:13.675Z,51.90
2018-07-28T20:07:42.201Z,57.20
2018-07-28T20:10:11.094Z,59.20
2018-07-28T20:12:39.963Z,59.20
2018-07-28T20:15:08.642Z,62.00
2018-07-28T20:17:37.145Z,62.00
2018-07-28T20:20:06.129Z,62.10
2018-07-28T20:22:34.651Z,62.80
2018-07-28T20:25:03.228Z,66.00
2018-07-28T20:27:31.931Z,67.10
2018-07-28T20:30:00.503Z,68.50
2018-07-28T20:32:29.018Z,69.40
2018-07-28T20:34:57.572Z,69.50
2018-07-28T20:37:26.150Z,72.50
2018-07-28T20:39:54.762Z,71.30
2018-07-28T20:42:23.327Z,72.40
2018-07-28T20:44:52.565Z,73.30
2018-07-28T20:47:21.778Z,73.30
2018-07-28T20:49:50.315Z,74.40
2018-07-28T20:52:18.895Z,72.90
2018-07-28T20:54:47.403Z,73.10
2018-07-28T21:07:05.640Z,71.90
2018-07-28T21:09:34.121Z,72.60
2018-07-28T21:12:02.670Z,83.40
2018-07-28T21:14:31.190Z,82.70
2018-07-28T21:16:59.711Z,81.20
2018-07-28T21:19:28.260Z,81.60
2018-07-28T21:21:56.982Z,80.60
2018-07-28T21:24:25.605Z,81.60
2018-07-28T21:26:54.198Z,81.60
2018-07-28T21:29:22.803Z,82.90
2018-07-28T21:31:51.385Z,84.10
2018-07-28T21:34:19.926Z,84.30
2018-07-28T21:36:48.497Z,84.40
2018-07-28T21:39:17.091Z,84.00
2018-07-28T21:41:45.618Z,84.00
2018-07-28T21:44:14.159Z,86.00
2018-07-28T21:46:42.724Z,87.70
2018-07-28T21:49:11.411Z,87.40
2018-07-28T21:51:40.076Z,87.80
2018-07-28T21:54:08.669Z,85.20
2018-07-28T21:56:37.194Z,84.30
2018-07-28T21:59:05.897Z,84.50
2018-07-28T22:01:34.586Z,83.50
2018-07-28T22:04:03.852Z,83.90
2018-07-28T22:06:34.103Z,82.50
2018-07-28T22:09:02.724Z,84.50
2018-07-28T22:11:31.369Z,85.70
2018-07-28T22:13:59.931Z,84.70
2018-07-28T22:16:28.501Z,84.20
2018-07-28T22:18:57.058Z,84.80
2018-07-28T22:21:25.673Z,86.30
2018-07-28T22:23:54.328Z,86.30
2018-07-28T22:26:22.816Z,86.20
2018-07-28T22:28:51.523Z,87.10
2018-07-28T22:31:20.137Z,87.60
2018-07-28T22:33:48.682Z,87.00
2018-07-28T22:36:17.383Z,87.80
2018-07-28T22:38:46.070Z,88.10
2018-07-28T22:41:14.800Z,86.20
2018-07-28T22:43:43.393Z,88.50
2018-07-28T22:46:12.567Z,87.60
2018-07-28T22:48:41.225Z,87.70
2018-07-28T22:51:09.929Z,87.40
2018-07-28T22:53:38.824Z,87.90
2018-07-28T22:56:07.719Z,85.90
2018-07-28T22:58:36.443Z,85.20
2018-07-28T23:01:05.086Z,85.50
2018-07-28T23:03:33.812Z,86.40
2018-07-28T23:06:02.550Z,89.70
2018-07-28T23:08:31.123Z,89.30
2018-07-28T23:10:59.735Z,88.80
2018-07-28T23:13:28.475Z,87.90
2018-07-28T23:15:57.058Z,86.10
2018-07-28T23:18:25.741Z,82.00
2018-07-28T23:20:54.378Z,84.00
2018-07-28T23:23:23.146Z,80.20
2018-07-28T23:25:52.169Z,81.60
2018-07-28T23:28:20.868Z,81.20
2018-07-28T23:30:49.627Z,80.70
2018-07-28T23:33:18.323Z,77.10
2018-07-28T23:35:46.992Z,76.10
2018-07-28T23:38:15.547Z,76.30
2018-07-28T23:40:44.131Z,75.00
2018-07-28T23:43:12.711Z,78.90
2018-07-28T23:45:41.284Z,76.60
2018-07-28T23:48:09.839Z,78.80
2018-07-28T23:50:38.527Z,77.40
2018-07-28T23:53:07.141Z,76.80
2018-07-28T23:55:35.841Z,75.30
2018-07-28T23:58:04.519Z,75.20
